sensor_id;sensor_type;location;lat;lon;timestamp;temperature;humidity
5828;DHT22;42583;50.240;8.444;2023-02-26T00:07:25;-1.40;86.80
5828;DHT22;42583;50.240;8.444;2023-02-26T00:22:28;-1.60;86.80
5828;DHT22;42583;50.240;8.444;2023-02-26T00:53:16;-1.60;89.30
5828;DHT22;42583;50.240;8.444;2023-02-26T01:08:30;-1.50;90.20
5828;DHT22;42583;50.240;8.444;2023-02-26T01:23:36;-1.30;91.30
5828;DHT22;42583;50.240;8.444;2023-02-26T01:38:58;-1.30;91.50
5828;DHT22;42583;50.240;8.444;2023-02-26T01:54:01;-1.40;92.80
5828;DHT22;42583;50.240;8.444;2023-02-26T02:09:04;-1.40;94.60
5828;DHT22;42583;50.240;8.444;2023-02-26T02:40:21;-1.30;96.00
5828;DHT22;42583;50.240;8.444;2023-02-26T02:55:43;-1.30;96.70
5828;DHT22;42583;50.240;8.444;2023-02-26T03:10:46;-1.30;97.90
5828;DHT22;42583;50.240;8.444;2023-02-26T03:25:54;-1.30;98.50
5828;DHT22;42583;50.240;8.444;2023-02-26T03:41:04;-1.40;99.30
5828;DHT22;42583;50.240;8.444;2023-02-26T04:11:14;-1.40;99.70
5828;DHT22;42583;50.240;8.444;2023-02-26T04:26:16;-1.50;99.70
5828;DHT22;42583;50.240;8.444;2023-02-26T04:41:17;-1.50;99.70
5828;DHT22;42583;50.240;8.444;2023-02-26T04:56:18;-1.50;99.50
5828;DHT22;42583;50.240;8.444;2023-02-26T05:11:18;-1.60;99.30
5828;DHT22;42583;50.240;8.444;2023-02-26T05:26:19;-1.70;99.70
5828;DHT22;42583;50.240;8.444;2023-02-26T05:41:20;-1.80;99.60
5828;DHT22;42583;50.240;8.444;2023-02-26T05:56:20;-1.80;99.30
5828;DHT22;42583;50.240;8.444;2023-02-26T06:11:21;-1.90;99.30
5828;DHT22;42583;50.240;8.444;2023-02-26T06:26:21;-1.90;99.50
5828;DHT22;42583;50.240;8.444;2023-02-26T06:41:22;-1.80;99.80
5828;DHT22;42583;50.240;8.444;2023-02-26T06:56:23;-1.90;99.90
5828;DHT22;42583;50.240;8.444;2023-02-26T07:11:23;-1.90;99.90
5828;DHT22;42583;50.240;8.444;2023-02-26T07:26:24;-1.80;99.90
5828;DHT22;42583;50.240;8.444;2023-02-26T07:41:25;-1.70;99.90
5828;DHT22;42583;50.240;8.444;2023-02-26T07:56:25;-1.70;99.20
5828;DHT22;42583;50.240;8.444;2023-02-26T08:11:26;-1.60;99.30
5828;DHT22;42583;50.240;8.444;2023-02-26T08:26:27;-1.50;99.20
5828;DHT22;42583;50.240;8.444;2023-02-26T08:41:27;-1.50;97.90
5828;DHT22;42583;50.240;8.444;2023-02-26T08:56:29;-1.40;97.00
5828;DHT22;42583;50.240;8.444;2023-02-26T09:11:31;-1.10;97.00
5828;DHT22;42583;50.240;8.444;2023-02-26T09:26:31;-0.50;94.90
5828;DHT22;42583;50.240;8.444;2023-02-26T09:41:36;0.10;92.20
5828;DHT22;42583;50.240;8.444;2023-02-26T09:56:38;0.10;91.10
5828;DHT22;42583;50.240;8.444;2023-02-26T10:26:45;2.50;83.00
5828;DHT22;42583;50.240;8.444;2023-02-26T10:41:50;1.70;77.30
5828;DHT22;42583;50.240;8.444;2023-02-26T10:56:51;0.70;78.90
5828;DHT22;42583;50.240;8.444;2023-02-26T11:11:54;1.20;78.60
5828;DHT22;42583;50.240;8.444;2023-02-26T11:26:56;2.30;82.40
5828;DHT22;42583;50.240;8.444;2023-02-26T11:41:59;5.80;72.10
5828;DHT22;42583;50.240;8.444;2023-02-26T11:57:17;4.40;66.70
5828;DHT22;42583;50.240;8.444;2023-02-26T12:12:31;6.90;64.30
5828;DHT22;42583;50.240;8.444;2023-02-26T13:29:37;1.90;63.60
5828;DHT22;42583;50.240;8.444;2023-02-26T14:00:44;2.70;66.10
5828;DHT22;42583;50.240;8.444;2023-02-26T14:16:00;3.60;70.90
5828;DHT22;42583;50.240;8.444;2023-02-26T14:46:06;7.40;50.30
5828;DHT22;42583;50.240;8.444;2023-02-26T15:17:05;6.70;48.10
5828;DHT22;42583;50.240;8.444;2023-02-26T15:32:25;4.10;49.30
5828;DHT22;42583;50.240;8.444;2023-02-26T15:47:27;2.60;51.40
5828;DHT22;42583;50.240;8.444;2023-02-26T16:02:30;1.80;53.90
5828;DHT22;42583;50.240;8.444;2023-02-26T16:17:33;5.70;53.90
5828;DHT22;42583;50.240;8.444;2023-02-26T16:32:35;4.90;49.70
5828;DHT22;42583;50.240;8.444;2023-02-26T16:47:35;3.10;48.70
5828;DHT22;42583;50.240;8.444;2023-02-26T17:02:39;1.50;50.80
5828;DHT22;42583;50.240;8.444;2023-02-26T17:17:43;0.70;52.10
5828;DHT22;42583;50.240;8.444;2023-02-26T17:32:43;0.20;53.50
5828;DHT22;42583;50.240;8.444;2023-02-26T17:47:44;-0.10;55.00
5828;DHT22;42583;50.240;8.444;2023-02-26T18:02:46;-0.50;56.00
5828;DHT22;42583;50.240;8.444;2023-02-26T18:17:47;-0.70;56.90
5828;DHT22;42583;50.240;8.444;2023-02-26T18:32:48;-0.90;57.70
5828;DHT22;42583;50.240;8.444;2023-02-26T18:47:49;-1.00;58.60
5828;DHT22;42583;50.240;8.444;2023-02-26T19:02:50;-1.10;58.80
5828;DHT22;42583;50.240;8.444;2023-02-26T19:17:51;-1.10;59.30
5828;DHT22;42583;50.240;8.444;2023-02-26T19:32:52;-1.30;59.50
5828;DHT22;42583;50.240;8.444;2023-02-26T19:47:53;-1.40;61.10
5828;DHT22;42583;50.240;8.444;2023-02-26T20:02:54;-1.50;62.00
5828;DHT22;42583;50.240;8.444;2023-02-26T20:17:54;-1.70;62.50
5828;DHT22;42583;50.240;8.444;2023-02-26T20:32:55;-1.80;63.40
5828;DHT22;42583;50.240;8.444;2023-02-26T20:47:55;-1.80;64.70
5828;DHT22;42583;50.240;8.444;2023-02-26T21:02:56;-1.80;65.40
5828;DHT22;42583;50.240;8.444;2023-02-26T21:17:57;-1.70;66.00
5828;DHT22;42583;50.240;8.444;2023-02-26T21:32:57;-1.80;66.60
5828;DHT22;42583;50.240;8.444;2023-02-26T21:47:58;-1.90;67.00
5828;DHT22;42583;50.240;8.444;2023-02-26T22:02:59;-2.10;67.80
5828;DHT22;42583;50.240;8.444;2023-02-26T22:18:00;-2.20;69.40
5828;DHT22;42583;50.240;8.444;2023-02-26T22:33:00;-2.30;70.20
5828;DHT22;42583;50.240;8.444;2023-02-26T22:48:01;-2.40;71.00
5828;DHT22;42583;50.240;8.444;2023-02-26T23:03:02;-2.40;72.80
5828;DHT22;42583;50.240;8.444;2023-02-26T23:18:02;-2.50;73.10
5828;DHT22;42583;50.240;8.444;2023-02-26T23:33:03;-2.60;74.40
5828;DHT22;42583;50.240;8.444;2023-02-26T23:48:06;-2.70;76.60
